Terminal Aerodrome Forecast
Issued by NWS

Home | Current Version | Previous Version | Text Only | Print | Product List | Glossary On
Versions: 1 2 3 4 5 6 7 8 9 10 11 12 13 14 15 16 17 18 19 20
000
FTUS41 KBOX 250542
TAFFMH
TAF
KFMH 250542Z 2506/2606 19009KT 1/4SM FG OVC002
     FM251500 16009KT P6SM SCT002 BKN080
     FM252100 14009KT P6SM VCSH BKN015
     FM260200 18009KT 4SM -SHRA BR OVC008
     FM260500 24010G25KT 5SM BR VCSH OVC035=

USA.gov is the U.S. government's official web portal to all federal, state and local government web resources and services.